createdAt,value
2018-06-29T00:00:34.283Z,0
2018-06-29T00:01:34.320Z,0
2018-06-29T00:02:34.260Z,0
2018-06-29T00:03:34.601Z,0
2018-06-29T00:04:34.644Z,0
2018-06-29T00:05:34.370Z,0
2018-06-29T00:06:34.741Z,0
2018-06-29T00:07:34.671Z,0
2018-06-29T00:08:34.591Z,0
2018-06-29T00:09:34.501Z,0
2018-06-29T00:10:34.561Z,0
2018-06-29T00:11:34.474Z,0
2018-06-29T00:12:34.694Z,0
2018-06-29T00:13:34.512Z,0
2018-06-29T00:14:34.718Z,0
2018-06-29T00:15:34.609Z,0
2018-06-29T00:16:34.936Z,0
2018-06-29T00:17:34.600Z,0
2018-06-29T00:18:34.964Z,0
2018-06-29T00:19:34.991Z,0
2018-06-29T00:20:35.012Z,0
2018-06-29T00:21:35.425Z,0
2018-06-29T00:22:35.331Z,0
2018-06-29T00:23:35.349Z,0
2018-06-29T00:24:35.380Z,0
2018-06-29T00:25:48.031Z,0
2018-06-29T00:26:34.895Z,0
2018-06-29T00:27:35.177Z,0
2018-06-29T00:28:35.484Z,0
2018-06-29T00:29:35.503Z,0
2018-06-29T00:30:35.257Z,0
2018-06-29T00:31:35.280Z,0
2018-06-29T00:32:35.573Z,0
2018-06-29T00:33:35.061Z,0
2018-06-29T00:34:35.619Z,0
2018-06-29T00:35:35.740Z,0
2018-06-29T00:36:35.705Z,0
2018-06-29T00:37:35.705Z,0
2018-06-29T00:38:35.607Z,0
2018-06-29T00:39:35.760Z,0
2018-06-29T00:40:35.503Z,0
2018-06-29T00:41:35.799Z,0
2018-06-29T00:42:35.816Z,0
2018-06-29T00:43:35.836Z,0
2018-06-29T00:44:35.594Z,0
2018-06-29T00:45:35.355Z,0
2018-06-29T00:46:35.920Z,0
2018-06-29T00:47:35.948Z,0
2018-06-29T00:48:35.801Z,0
2018-06-29T00:49:35.995Z,0
2018-06-29T00:50:36.016Z,0
2018-06-29T00:51:36.038Z,0
2018-06-29T00:52:36.065Z,0
2018-06-29T00:53:36.135Z,0
2018-06-29T00:54:36.257Z,0
2018-06-29T00:55:35.614Z,0
2018-06-29T00:56:35.902Z,0
2018-06-29T00:57:35.916Z,0
2018-06-29T00:58:36.213Z,0
2018-06-29T00:59:36.229Z,0
2018-06-29T01:00:35.984Z,0
2018-06-29T01:01:36.015Z,0
2018-06-29T01:02:35.507Z,0
2018-06-29T01:03:36.068Z,0
2018-06-29T01:04:36.083Z,0
2018-06-29T01:05:36.387Z,0
2018-06-29T01:06:36.137Z,0
2018-06-29T01:07:36.428Z,0
2018-06-29T01:08:36.457Z,0
2018-06-29T01:09:36.487Z,0
2018-06-29T01:10:36.237Z,0
2018-06-29T01:11:36.540Z,0
2018-06-29T01:12:36.542Z,0
2018-06-29T01:13:36.580Z,0
2018-06-29T01:14:36.628Z,0
2018-06-29T01:15:36.625Z,0
2018-06-29T01:16:36.382Z,0
2018-06-29T01:17:36.402Z,0
2018-06-29T01:18:36.423Z,0
2018-06-29T01:19:36.457Z,0
2018-06-29T01:20:36.473Z,0
2018-06-29T01:21:36.773Z,0
2018-06-29T01:22:36.523Z,0
2018-06-29T01:23:36.827Z,0
2018-06-29T01:24:36.571Z,0
2018-06-29T01:25:36.062Z,0
2018-06-29T01:26:36.642Z,0
2018-06-29T01:27:36.650Z,0
2018-06-29T01:28:37.124Z,0
2018-06-29T01:29:36.969Z,0
2018-06-29T01:30:36.723Z,0
2018-06-29T01:31:37.027Z,0
2018-06-29T01:32:36.774Z,0
2018-06-29T01:33:36.799Z,0
2018-06-29T01:34:37.093Z,0
2018-06-29T01:35:36.586Z,0
2018-06-29T01:36:36.608Z,0
2018-06-29T01:37:36.889Z,0
2018-06-29T01:38:37.190Z,0
2018-06-29T01:39:36.956Z,0
2018-06-29T01:40:37.231Z,0
2018-06-29T01:41:37.232Z,0
2018-06-29T01:42:37.058Z,0
2018-06-29T01:43:37.253Z,0
2018-06-29T01:44:37.060Z,0
2018-06-29T01:45:37.350Z,0
2018-06-29T01:46:37.121Z,0
2018-06-29T01:47:37.423Z,0
2018-06-29T01:48:37.161Z,0
2018-06-29T01:49:37.177Z,0
2018-06-29T01:50:37.208Z,0
2018-06-29T01:51:36.963Z,0
2018-06-29T01:52:37.513Z,0
2018-06-29T01:53:37.559Z,0
2018-06-29T01:54:37.308Z,0
2018-06-29T01:55:37.065Z,0
2018-06-29T01:56:37.623Z,0
2018-06-29T01:57:37.390Z,0
2018-06-29T01:58:37.396Z,0
2018-06-29T01:59:37.436Z,0
2018-06-29T02:00:37.450Z,0
2018-06-29T02:01:37.468Z,0
2018-06-29T02:02:37.233Z,0
2018-06-29T02:03:37.518Z,0
2018-06-29T02:04:37.281Z,0
2018-06-29T02:05:37.047Z,0
2018-06-29T02:06:37.862Z,0
2018-06-29T02:07:37.617Z,0
2018-06-29T02:08:37.924Z,0
2018-06-29T02:09:37.939Z,0
2018-06-29T02:10:37.689Z,0
2018-06-29T02:11:37.442Z,0
2018-06-29T02:12:38.016Z,0
2018-06-29T02:13:37.501Z,0
2018-06-29T02:14:38.058Z,0
2018-06-29T02:15:38.075Z,0
2018-06-29T02:16:37.831Z,0
2018-06-29T02:17:37.854Z,0
2018-06-29T02:18:37.883Z,0
2018-06-29T02:19:38.182Z,0
2018-06-29T02:20:38.194Z,0
2018-06-29T02:21:37.965Z,0
2018-06-29T02:22:37.712Z,0
2018-06-29T02:23:38.266Z,0
2018-06-29T02:24:37.755Z,0
2018-06-29T02:25:38.054Z,0
2018-06-29T02:26:38.354Z,0
2018-06-29T02:27:38.220Z,0
2018-06-29T02:28:37.851Z,0
2018-06-29T02:29:38.413Z,0
2018-06-29T02:30:38.453Z,0
2018-06-29T02:31:37.934Z,0
2018-06-29T02:32:38.004Z,0
2018-06-29T02:33:38.250Z,0
2018-06-29T02:34:38.545Z,0
2018-06-29T02:35:38.292Z,4
2018-06-29T02:36:38.686Z,4
2018-06-29T02:37:38.609Z,4
2018-06-29T02:38:38.097Z,0
2018-06-29T02:39:38.668Z,4
2018-06-29T02:40:38.418Z,4
2018-06-29T02:41:38.723Z,4
2018-06-29T02:42:38.730Z,4
2018-06-29T02:43:38.225Z,4
2018-06-29T02:44:38.257Z,4
2018-06-29T02:45:38.273Z,8
2018-06-29T02:46:38.561Z,8
2018-06-29T02:47:38.577Z,4
2018-06-29T02:48:38.874Z,8
2018-06-29T02:49:38.894Z,8
2018-06-29T02:50:38.665Z,8
2018-06-29T02:51:38.686Z,12
2018-06-29T02:52:38.443Z,12
2018-06-29T02:53:38.985Z,12
2018-06-29T02:54:38.483Z,16
2018-06-29T02:55:39.056Z,16
2018-06-29T02:56:38.805Z,20
2018-06-29T02:57:39.145Z,24
2018-06-29T02:58:38.855Z,24
2018-06-29T02:59:39.165Z,28
2018-06-29T03:00:39.163Z,28
2018-06-29T03:01:39.193Z,24
2018-06-29T03:02:38.960Z,24
2018-06-29T03:03:39.235Z,28
2018-06-29T03:04:38.998Z,24
2018-06-29T03:05:39.028Z,28
2018-06-29T03:06:39.317Z,24
2018-06-29T03:07:38.798Z,24
2018-06-29T03:08:39.357Z,28
2018-06-29T03:09:39.109Z,28
2018-06-29T03:10:39.141Z,36
2018-06-29T03:11:39.427Z,40
2018-06-29T03:12:39.454Z,48
2018-06-29T03:13:39.480Z,52
2018-06-29T03:14:39.500Z,60
2018-06-29T03:15:39.522Z,64
2018-06-29T03:16:39.564Z,64
2018-06-29T03:17:39.582Z,68
2018-06-29T03:18:39.586Z,68
2018-06-29T03:19:39.356Z,68
2018-06-29T03:20:39.638Z,72
2018-06-29T03:21:39.661Z,76
2018-06-29T03:22:39.696Z,80
2018-06-29T03:23:39.736Z,80
2018-06-29T03:24:39.475Z,84
2018-06-29T03:25:39.506Z,92
2018-06-29T03:26:39.513Z,96
2018-06-29T03:27:39.805Z,104
2018-06-29T03:28:39.292Z,108
2018-06-29T03:29:39.591Z,112
2018-06-29T03:30:39.673Z,120
2018-06-29T03:31:39.634Z,120
2018-06-29T03:32:39.925Z,128
2018-06-29T03:33:39.694Z,128
2018-06-29T03:34:39.968Z,128
2018-06-29T03:35:39.727Z,132
2018-06-29T03:36:39.659Z,140
2018-06-29T03:37:39.775Z,148
2018-06-29T03:38:40.062Z,152
2018-06-29T03:39:39.833Z,156
2018-06-29T03:40:40.804Z,168
2018-06-29T03:41:39.879Z,180
2018-06-29T03:42:39.890Z,184
2018-06-29T03:43:40.189Z,172
2018-06-29T03:44:40.287Z,172
2018-06-29T03:45:40.023Z,168
2018-06-29T03:46:39.989Z,156
2018-06-29T03:47:40.329Z,152
2018-06-29T03:48:40.054Z,152
2018-06-29T03:49:39.912Z,152
2018-06-29T03:50:40.086Z,152
2018-06-29T03:51:40.119Z,156
2018-06-29T03:52:40.402Z,156
2018-06-29T03:53:40.436Z,168
2018-06-29T03:54:40.456Z,180
2018-06-29T03:55:40.476Z,192
2018-06-29T03:56:40.501Z,208
2018-06-29T03:57:40.508Z,232
2018-06-29T03:58:40.543Z,244
2018-06-29T03:59:40.566Z,264
2018-06-29T04:00:40.315Z,276
2018-06-29T04:01:40.619Z,268
2018-06-29T04:02:40.368Z,256
2018-06-29T04:03:40.392Z,244
2018-06-29T04:04:40.687Z,240
2018-06-29T04:05:40.437Z,240
2018-06-29T04:06:40.731Z,236
2018-06-29T04:07:40.756Z,228
2018-06-29T04:08:40.775Z,268
2018-06-29T04:09:40.534Z,296
2018-06-29T04:10:40.821Z,312
2018-06-29T04:11:40.642Z,340
2018-06-29T04:12:40.874Z,360
2018-06-29T04:13:40.888Z,388
2018-06-29T04:14:40.918Z,460
2018-06-29T04:15:40.670Z,488
2018-06-29T04:16:40.696Z,404
2018-06-29T04:17:41.034Z,324
2018-06-29T04:18:41.013Z,296
2018-06-29T04:19:41.033Z,312
2018-06-29T04:20:40.797Z,324
2018-06-29T04:21:40.813Z,328
2018-06-29T04:22:40.847Z,304
2018-06-29T04:23:41.125Z,284
2018-06-29T04:24:41.143Z,296
2018-06-29T04:25:40.904Z,324
2018-06-29T04:26:41.475Z,340
2018-06-29T04:27:40.962Z,324
2018-06-29T04:28:40.710Z,288
2018-06-29T04:29:41.002Z,256
2018-06-29T04:30:41.297Z,240
2018-06-29T04:31:41.318Z,240
2018-06-29T04:32:41.363Z,244
2018-06-29T04:33:41.369Z,248
2018-06-29T04:34:40.868Z,244
2018-06-29T04:35:41.409Z,244
2018-06-29T04:36:41.671Z,256
2018-06-29T04:37:41.456Z,268
2018-06-29T04:38:41.483Z,292
2018-06-29T04:39:40.982Z,312
2018-06-29T04:40:41.535Z,336
2018-06-29T04:41:41.558Z,340
2018-06-29T04:42:41.572Z,332
2018-06-29T04:43:41.607Z,336
2018-06-29T04:44:41.633Z,360
2018-06-29T04:45:41.386Z,400
2018-06-29T04:46:41.140Z,400
2018-06-29T04:47:41.705Z,388
2018-06-29T04:48:41.451Z,332
2018-06-29T04:49:41.752Z,300
2018-06-29T04:50:41.513Z,280
2018-06-29T04:51:41.257Z,280
2018-06-29T04:52:41.547Z,276
2018-06-29T04:53:41.844Z,280
2018-06-29T04:54:41.595Z,296
2018-06-29T04:55:41.882Z,328
2018-06-29T04:56:41.644Z,328
2018-06-29T04:57:41.931Z,304
2018-06-29T04:58:41.956Z,284
2018-06-29T04:59:41.721Z,284
2018-06-29T05:00:41.745Z,280
2018-06-29T05:01:41.762Z,280
2018-06-29T05:02:41.253Z,280
2018-06-29T05:03:42.080Z,280
2018-06-29T05:04:42.102Z,280
2018-06-29T05:05:41.852Z,280
2018-06-29T05:06:42.157Z,284
2018-06-29T05:07:41.903Z,284
2018-06-29T05:08:41.656Z,288
2018-06-29T05:09:41.683Z,288
2018-06-29T05:10:42.243Z,288
2018-06-29T05:11:42.267Z,288
2018-06-29T05:12:42.287Z,292
2018-06-29T05:13:42.317Z,292
2018-06-29T05:14:41.812Z,292
2018-06-29T05:15:42.577Z,292
2018-06-29T05:16:42.107Z,296
2018-06-29T05:17:42.137Z,300
2018-06-29T05:18:41.894Z,300
2018-06-29T05:19:42.185Z,296
2018-06-29T05:20:42.471Z,296
2018-06-29T05:21:41.966Z,288
2018-06-29T05:22:42.523Z,288
2018-06-29T05:23:42.548Z,284
2018-06-29T05:24:42.575Z,284
2018-06-29T05:25:42.593Z,284
2018-06-29T05:26:42.285Z,288
2018-06-29T05:27:42.106Z,292
2018-06-29T05:28:42.754Z,304
2018-06-29T05:29:42.414Z,316
2018-06-29T05:30:42.491Z,320
2018-06-29T05:31:42.474Z,324
2018-06-29T05:32:42.482Z,320
2018-06-29T05:33:42.510Z,320
2018-06-29T05:34:42.807Z,320
2018-06-29T05:35:42.562Z,316
2018-06-29T05:36:42.860Z,312
2018-06-29T05:37:42.605Z,316
2018-06-29T05:38:42.948Z,316
2018-06-29T05:39:42.652Z,316
2018-06-29T05:40:42.675Z,316
2018-06-29T05:41:43.169Z,316
2018-06-29T05:42:42.977Z,316
2018-06-29T05:43:42.748Z,320
2018-06-29T05:44:42.510Z,320
2018-06-29T05:45:42.524Z,320
2018-06-29T05:46:43.089Z,324
2018-06-29T05:47:42.579Z,324
2018-06-29T05:48:42.859Z,324
2018-06-29T05:49:42.886Z,324
2018-06-29T05:50:42.957Z,324
2018-06-29T05:51:43.212Z,324
2018-06-29T05:52:43.232Z,324
2018-06-29T05:53:42.991Z,328
2018-06-29T05:54:43.271Z,332
2018-06-29T05:55:43.297Z,332
2018-06-29T05:56:43.323Z,332
2018-06-29T05:57:42.811Z,332
2018-06-29T05:58:43.108Z,336
2018-06-29T05:59:43.385Z,336
2018-06-29T06:00:43.408Z,340
2018-06-29T06:01:43.438Z,340
2018-06-29T06:02:43.465Z,340
2018-06-29T06:03:43.245Z,340
2018-06-29T06:04:43.838Z,340
2018-06-29T06:05:43.265Z,340
2018-06-29T06:06:43.022Z,344
2018-06-29T06:07:43.233Z,340
2018-06-29T06:08:42.895Z,344
2018-06-29T06:09:43.145Z,348
2018-06-29T06:10:43.642Z,348
2018-06-29T06:11:43.136Z,348
2018-06-29T06:12:43.749Z,352
2018-06-29T06:13:43.533Z,352
2018-06-29T06:14:43.052Z,352
2018-06-29T06:15:43.320Z,352
2018-06-29T06:16:43.363Z,352
2018-06-29T06:17:43.398Z,352
2018-06-29T06:18:43.084Z,356
2018-06-29T06:19:43.191Z,352
2018-06-29T06:20:43.444Z,356
2018-06-29T06:21:43.168Z,356
2018-06-29T06:22:43.409Z,356
2018-06-29T06:23:43.319Z,360
2018-06-29T06:24:43.530Z,360
2018-06-29T06:25:43.573Z,364
2018-06-29T06:26:44.550Z,364
2018-06-29T06:27:43.589Z,364
2018-06-29T06:28:43.603Z,364
2018-06-29T06:29:44.080Z,364
2018-06-29T06:30:44.117Z,368
2018-06-29T06:31:44.324Z,364
2018-06-29T06:32:44.170Z,368
2018-06-29T06:33:43.919Z,368
2018-06-29T06:34:44.210Z,368
2018-06-29T06:35:43.968Z,368
2018-06-29T06:36:43.988Z,368
2018-06-29T06:37:44.280Z,372
2018-06-29T06:38:44.319Z,372
2018-06-29T06:39:44.327Z,376
2018-06-29T06:40:44.350Z,376
2018-06-29T06:41:45.659Z,380
2018-06-29T06:42:43.678Z,380
2018-06-29T06:43:44.152Z,380
2018-06-29T06:44:44.441Z,380
2018-06-29T06:45:44.470Z,380
2018-06-29T06:46:44.228Z,384
2018-06-29T06:47:43.977Z,384
2018-06-29T06:48:44.539Z,384
2018-06-29T06:49:44.344Z,388
2018-06-29T06:50:44.583Z,384
2018-06-29T06:51:44.610Z,388
2018-06-29T06:52:44.097Z,392
2018-06-29T06:53:44.278Z,388
2018-06-29T06:54:44.785Z,392
2018-06-29T06:55:44.698Z,396
2018-06-29T06:56:44.723Z,396
2018-06-29T06:57:44.232Z,396
2018-06-29T06:58:44.523Z,400
2018-06-29T06:59:44.531Z,400
2018-06-29T07:00:44.553Z,404
2018-06-29T07:01:44.586Z,404
2018-06-29T07:02:44.869Z,404
2018-06-29T07:03:44.887Z,412
2018-06-29T07:04:44.916Z,412
2018-06-29T07:05:44.928Z,412
2018-06-29T07:06:44.429Z,416
2018-06-29T07:07:44.724Z,416
2018-06-29T07:08:45.014Z,416
2018-06-29T07:09:44.786Z,416
2018-06-29T07:10:45.059Z,420
2018-06-29T07:11:45.132Z,420
2018-06-29T07:12:45.008Z,424
2018-06-29T07:13:45.126Z,424
2018-06-29T07:14:45.147Z,424
2018-06-29T07:15:45.171Z,428
2018-06-29T07:16:44.929Z,428
2018-06-29T07:17:44.948Z,432
2018-06-29T07:18:45.242Z,432
2018-06-29T07:19:45.274Z,440
2018-06-29T07:20:44.755Z,444
2018-06-29T07:21:45.321Z,444
2018-06-29T07:22:45.337Z,448
2018-06-29T07:23:45.356Z,448
2018-06-29T07:24:44.843Z,452
2018-06-29T07:25:44.877Z,456
2018-06-29T07:26:45.273Z,460
2018-06-29T07:27:45.186Z,460
2018-06-29T07:28:45.223Z,464
2018-06-29T07:29:45.507Z,464
2018-06-29T07:30:45.262Z,468
2018-06-29T07:31:45.278Z,476
2018-06-29T07:32:45.599Z,476
2018-06-29T07:33:45.323Z,476
2018-06-29T07:34:45.352Z,480
2018-06-29T07:35:45.642Z,484
2018-06-29T07:36:45.403Z,488
2018-06-29T07:37:45.710Z,492
2018-06-29T07:38:46.064Z,496
2018-06-29T07:39:45.741Z,500
2018-06-29T07:40:45.502Z,500
2018-06-29T07:41:45.523Z,508
2018-06-29T07:42:45.809Z,516
2018-06-29T07:43:45.838Z,516
2018-06-29T07:44:45.591Z,516
2018-06-29T07:45:45.619Z,520
2018-06-29T07:46:46.343Z,524
2018-06-29T07:47:45.661Z,532
2018-06-29T07:48:45.683Z,532
2018-06-29T07:49:45.974Z,540
2018-06-29T07:50:45.737Z,544
2018-06-29T07:51:45.759Z,544
2018-06-29T07:52:45.780Z,548
2018-06-29T07:53:45.810Z,552
2018-06-29T07:54:46.114Z,556
2018-06-29T07:55:46.117Z,560
2018-06-29T07:56:46.145Z,568
2018-06-29T07:57:45.925Z,572
2018-06-29T07:58:46.643Z,576
2018-06-29T07:59:45.951Z,580
2018-06-29T08:00:45.708Z,584
2018-06-29T08:01:46.386Z,588
2018-06-29T08:02:46.247Z,596
2018-06-29T08:03:46.327Z,600
2018-06-29T08:04:46.344Z,604
2018-06-29T08:05:45.832Z,608
2018-06-29T08:06:46.120Z,616
2018-06-29T08:07:45.881Z,620
2018-06-29T08:08:46.166Z,624
2018-06-29T08:09:46.211Z,628
2018-06-29T08:10:46.822Z,636
2018-06-29T08:11:46.242Z,640
2018-06-29T08:12:46.264Z,644
2018-06-29T08:13:46.292Z,652
2018-06-29T08:14:46.585Z,656
2018-06-29T08:15:46.613Z,660
2018-06-29T08:16:46.148Z,668
2018-06-29T08:17:46.394Z,672
2018-06-29T08:18:46.677Z,676
2018-06-29T08:19:46.446Z,684
2018-06-29T08:20:46.728Z,684
2018-06-29T08:21:46.499Z,696
2018-06-29T08:22:46.518Z,704
2018-06-29T08:23:46.545Z,708
2018-06-29T08:24:46.296Z,712
2018-06-29T08:25:46.317Z,720
2018-06-29T08:26:46.349Z,728
2018-06-29T08:27:46.917Z,736
2018-06-29T08:28:46.668Z,744
2018-06-29T08:29:46.685Z,744
2018-06-29T08:30:46.708Z,748
2018-06-29T08:31:47.009Z,760
2018-06-29T08:32:46.493Z,764
2018-06-29T08:33:46.789Z,772
2018-06-29T08:34:47.089Z,780
2018-06-29T08:35:47.115Z,780
2018-06-29T08:36:47.144Z,788
2018-06-29T08:37:47.164Z,796
2018-06-29T08:38:47.652Z,800
2018-06-29T08:39:46.672Z,804
2018-06-29T08:40:46.968Z,812
2018-06-29T08:41:46.989Z,816
2018-06-29T08:42:47.027Z,824
2018-06-29T08:43:46.777Z,836
2018-06-29T08:44:47.078Z,844
2018-06-29T08:45:47.366Z,844
2018-06-29T08:46:47.244Z,848
2018-06-29T08:47:47.423Z,852
2018-06-29T08:48:47.183Z,860
2018-06-29T08:49:47.806Z,876
2018-06-29T08:50:47.220Z,884
2018-06-29T08:51:46.983Z,888
2018-06-29T08:52:47.005Z,896
2018-06-29T08:53:47.568Z,896
2018-06-29T08:54:47.322Z,900
2018-06-29T08:55:47.354Z,904
2018-06-29T08:56:47.380Z,912
2018-06-29T08:57:47.401Z,924
2018-06-29T08:58:47.508Z,932
2018-06-29T08:59:47.728Z,936
2018-06-29T09:00:47.218Z,944
2018-06-29T09:01:47.772Z,956
2018-06-29T09:02:47.807Z,964
2018-06-29T09:03:47.826Z,968
2018-06-29T09:04:47.860Z,980
2018-06-29T09:05:47.615Z,988
2018-06-29T09:06:47.641Z,992
2018-06-29T09:07:47.405Z,996
2018-06-29T09:08:47.968Z,996
2018-06-29T09:09:47.731Z,1004
2018-06-29T09:10:48.015Z,1024
2018-06-29T09:11:48.040Z,1032
2018-06-29T09:12:47.266Z,1044
2018-06-29T09:13:47.826Z,1052
2018-06-29T09:14:48.128Z,1072
2018-06-29T09:15:47.609Z,1080
2018-06-29T09:16:47.372Z,1076
2018-06-29T09:17:47.667Z,1084
2018-06-29T09:18:47.973Z,1100
2018-06-29T09:19:47.987Z,1104
2018-06-29T09:20:47.762Z,1092
2018-06-29T09:21:48.047Z,1104
2018-06-29T09:22:48.079Z,1112
2018-06-29T09:23:48.371Z,1124
2018-06-29T09:24:48.152Z,1124
2018-06-29T09:25:48.155Z,1140
2018-06-29T09:26:47.908Z,1152
2018-06-29T09:27:48.257Z,1160
2018-06-29T09:28:47.975Z,1168
2018-06-29T09:29:48.586Z,1180
2018-06-29T09:30:48.286Z,1188
2018-06-29T09:31:47.781Z,1196
2018-06-29T09:32:48.403Z,1188
2018-06-29T09:33:48.372Z,1200
2018-06-29T09:34:48.668Z,1208
2018-06-29T09:35:48.157Z,1204
2018-06-29T09:36:48.193Z,1216
2018-06-29T09:37:48.241Z,1232
2018-06-29T09:38:48.508Z,1232
2018-06-29T09:39:48.804Z,1240
2018-06-29T09:40:48.576Z,1252
2018-06-29T09:41:48.602Z,1256
2018-06-29T09:42:48.628Z,1268
2018-06-29T09:43:48.916Z,1280
2018-06-29T09:44:48.412Z,1296
2018-06-29T09:45:48.709Z,1316
2018-06-29T09:46:49.005Z,1324
2018-06-29T09:47:49.296Z,1328
2018-06-29T09:48:49.070Z,1324
2018-06-29T09:49:48.552Z,1324
2018-06-29T09:50:49.118Z,1332
2018-06-29T09:51:48.607Z,1352
2018-06-29T09:52:49.168Z,1352
2018-06-29T09:53:48.664Z,1360
2018-06-29T09:54:48.981Z,1364
2018-06-29T09:55:48.993Z,1376
2018-06-29T09:56:49.018Z,1396
2018-06-29T09:57:49.315Z,1404
2018-06-29T09:58:48.548Z,1408
2018-06-29T09:59:49.103Z,1428
2018-06-29T10:00:55.409Z,1444
2018-06-29T10:01:49.428Z,1448
2018-06-29T10:02:49.190Z,1456
2018-06-29T10:03:49.225Z,1468
2018-06-29T10:04:48.979Z,1464
2018-06-29T10:05:49.273Z,1456
2018-06-29T10:06:49.585Z,1456
2018-06-29T10:07:49.607Z,1456
2018-06-29T10:08:49.361Z,1472
2018-06-29T10:09:49.660Z,1476
2018-06-29T10:10:49.689Z,1500
2018-06-29T10:11:49.452Z,1524
2018-06-29T10:12:49.763Z,1532
2018-06-29T10:13:49.775Z,1540
2018-06-29T10:14:49.809Z,1540
2018-06-29T10:15:49.839Z,1540
2018-06-29T10:16:49.601Z,1540
2018-06-29T10:17:49.626Z,1560
2018-06-29T10:18:49.664Z,1580
2018-06-29T10:19:50.044Z,1596
2018-06-29T10:20:49.726Z,1604
2018-06-29T10:21:50.025Z,1620
2018-06-29T10:22:49.780Z,1632
2018-06-29T10:23:50.080Z,1644
2018-06-29T10:24:50.113Z,1648
2018-06-29T10:25:50.142Z,1648
2018-06-29T10:26:50.164Z,1652
2018-06-29T10:27:49.922Z,1660
2018-06-29T10:28:49.962Z,1672
2018-06-29T10:29:50.039Z,1684
2018-06-29T10:30:49.855Z,1700
2018-06-29T10:31:49.514Z,1708
2018-06-29T10:32:49.540Z,1728
2018-06-29T10:33:50.113Z,1728
2018-06-29T10:34:50.139Z,1732
2018-06-29T10:35:50.169Z,1748
2018-06-29T10:36:50.702Z,1764
2018-06-29T10:37:50.235Z,1780
2018-06-29T10:38:50.201Z,1788
2018-06-29T10:39:50.298Z,1792
2018-06-29T10:40:50.596Z,1808
2018-06-29T10:41:50.084Z,1816
2018-06-29T10:42:50.122Z,1808
2018-06-29T10:43:50.419Z,1820
2018-06-29T10:44:51.193Z,1832
2018-06-29T10:45:50.493Z,1852
2018-06-29T10:46:50.516Z,1864
2018-06-29T10:47:50.810Z,1888
2018-06-29T10:48:50.304Z,1908
2018-06-29T10:49:50.871Z,1928
2018-06-29T10:50:50.638Z,1936
2018-06-29T10:51:50.676Z,1936
2018-06-29T10:52:51.196Z,1940
2018-06-29T10:53:50.994Z,1952
2018-06-29T10:54:51.030Z,1972
2018-06-29T10:55:51.053Z,1976
2018-06-29T10:56:50.857Z,1976
2018-06-29T10:57:50.590Z,1988
2018-06-29T10:58:50.759Z,2008
2018-06-29T10:59:50.925Z,2028
2018-06-29T11:00:51.215Z,2040
2018-06-29T11:01:50.712Z,2048
2018-06-29T11:02:51.284Z,2068
2018-06-29T11:03:50.770Z,2080
2018-06-29T11:04:51.081Z,2100
2018-06-29T11:05:51.399Z,2120
2018-06-29T11:06:51.134Z,2144
2018-06-29T11:07:51.439Z,2156
2018-06-29T11:08:50.932Z,2168
2018-06-29T11:09:51.246Z,2180
2018-06-29T11:10:51.595Z,2196
2018-06-29T11:11:51.587Z,2192
2018-06-29T11:12:50.793Z,2208
2018-06-29T11:13:51.362Z,2232
2018-06-29T11:14:51.396Z,2260
2018-06-29T11:15:51.423Z,2280
2018-06-29T11:16:51.462Z,2288
2018-06-29T11:17:51.489Z,2292
2018-06-29T11:18:51.255Z,2320
2018-06-29T11:19:51.831Z,2336
2018-06-29T11:20:51.639Z,2348
2018-06-29T11:21:51.893Z,2360
2018-06-29T11:22:51.664Z,2360
2018-06-29T11:23:51.684Z,2380
2018-06-29T11:24:51.717Z,2400
2018-06-29T11:25:52.011Z,2432
2018-06-29T11:26:51.781Z,2452
2018-06-29T11:27:52.090Z,2488
2018-06-29T11:28:51.852Z,2520
2018-06-29T11:29:52.145Z,2544
2018-06-29T11:30:51.650Z,2560
2018-06-29T11:31:51.982Z,2580
2018-06-29T11:32:52.000Z,2584
2018-06-29T11:33:51.748Z,2592
2018-06-29T11:34:52.315Z,2616
2018-06-29T11:35:52.346Z,2640
2018-06-29T11:36:52.314Z,2664
2018-06-29T11:37:51.879Z,2692
2018-06-29T11:38:52.281Z,2704
2018-06-29T11:39:52.218Z,2708
2018-06-29T11:40:52.517Z,2732
2018-06-29T11:41:52.549Z,2748
2018-06-29T11:42:52.578Z,2760
2018-06-29T11:43:52.612Z,2780
2018-06-29T11:44:52.653Z,2796
2018-06-29T11:45:52.685Z,2816
2018-06-29T11:46:52.719Z,2852
2018-06-29T11:47:52.481Z,2856
2018-06-29T11:48:51.986Z,2864
2018-06-29T11:49:52.817Z,2876
2018-06-29T11:50:52.584Z,2908
2018-06-29T11:51:52.345Z,2928
2018-06-29T11:52:52.938Z,2960
2018-06-29T11:53:52.686Z,2996
2018-06-29T11:54:52.996Z,3028
2018-06-29T11:55:53.027Z,3044
2018-06-29T11:56:52.525Z,3068
2018-06-29T11:57:52.553Z,3108
2018-06-29T11:58:53.127Z,3152
2018-06-29T11:59:52.887Z,3180
2018-06-29T12:00:53.370Z,3228
2018-06-29T12:01:53.229Z,3268
2018-06-29T12:02:53.000Z,3316
2018-06-29T12:03:52.766Z,3352
2018-06-29T12:04:53.330Z,3380
2018-06-29T12:05:52.832Z,3416
2018-06-29T12:06:53.387Z,3440
2018-06-29T12:07:53.178Z,3460
2018-06-29T12:08:53.469Z,3496
2018-06-29T12:09:53.237Z,3492
2018-06-29T12:10:53.273Z,3516
2018-06-29T12:11:53.572Z,3556
2018-06-29T12:12:53.085Z,3580
2018-06-29T12:13:53.105Z,3608
2018-06-29T12:14:53.672Z,3632
2018-06-29T12:15:53.454Z,3636
2018-06-29T12:16:53.488Z,3636
2018-06-29T12:17:53.799Z,3644
2018-06-29T12:18:53.818Z,3632
2018-06-29T12:19:53.855Z,3632
2018-06-29T12:20:53.783Z,3656
2018-06-29T12:21:53.928Z,3652
2018-06-29T12:22:53.691Z,3756
2018-06-29T12:23:53.736Z,3804
2018-06-29T12:24:54.035Z,3848
2018-06-29T12:25:54.067Z,3860
2018-06-29T12:26:54.105Z,3844
2018-06-29T12:27:54.281Z,3780
2018-06-29T12:28:54.181Z,3560
2018-06-29T12:29:53.992Z,3564
2018-06-29T12:30:53.979Z,3744
2018-06-29T12:31:54.275Z,3936
2018-06-29T12:32:54.312Z,3980
2018-06-29T12:33:54.355Z,3960
2018-06-29T12:34:54.116Z,3976
2018-06-29T12:35:54.148Z,3924
2018-06-29T12:36:54.455Z,3892
2018-06-29T12:37:54.530Z,4040
2018-06-29T12:38:54.532Z,4000
2018-06-29T12:39:54.652Z,4000
2018-06-29T12:40:54.597Z,4000
2018-06-29T12:41:54.641Z,3972
2018-06-29T12:42:54.670Z,3980
2018-06-29T12:43:54.703Z,3980
2018-06-29T12:44:54.208Z,3960
2018-06-29T12:45:53.977Z,4000
2018-06-29T12:46:54.772Z,4008
2018-06-29T12:47:54.852Z,4036
2018-06-29T12:48:55.052Z,4028
2018-06-29T12:49:54.398Z,4056
2018-06-29T12:50:55.126Z,4076
2018-06-29T12:51:54.739Z,4112
2018-06-29T12:52:55.040Z,4160
2018-06-29T12:53:54.805Z,4188
2018-06-29T12:54:55.167Z,4172
2018-06-29T12:55:55.422Z,4132
2018-06-29T12:56:54.913Z,4080
2018-06-29T12:57:54.822Z,4096
2018-06-29T12:58:55.251Z,4044
2018-06-29T12:59:55.657Z,4096
2018-06-29T13:00:55.332Z,4148
2018-06-29T13:01:55.367Z,4200
2018-06-29T13:02:55.406Z,4244
2018-06-29T13:03:55.175Z,4292
2018-06-29T13:04:55.462Z,4332
2018-06-29T13:05:55.508Z,4376
2018-06-29T13:06:55.544Z,4448
2018-06-29T13:07:55.044Z,4508
2018-06-29T13:08:55.090Z,4572
2018-06-29T13:09:55.654Z,4644
2018-06-29T13:10:55.428Z,4704
2018-06-29T13:11:55.729Z,4772
2018-06-29T13:12:55.512Z,4840
2018-06-29T13:13:55.808Z,4896
2018-06-29T13:14:55.578Z,4932
2018-06-29T13:15:55.607Z,4956
2018-06-29T13:16:55.648Z,5052
2018-06-29T13:17:55.421Z,5124
2018-06-29T13:18:55.465Z,5148
2018-06-29T13:19:56.081Z,4692
2018-06-29T13:20:56.075Z,5020
2018-06-29T13:21:56.339Z,5348
2018-06-29T13:22:56.141Z,5460
2018-06-29T13:23:55.643Z,5560
2018-06-29T13:24:55.767Z,5776
2018-06-29T13:25:55.999Z,5780
2018-06-29T13:26:56.314Z,5320
2018-06-29T13:27:56.331Z,5524
2018-06-29T13:28:55.834Z,5532
2018-06-29T13:29:56.405Z,5664
2018-06-29T13:30:56.395Z,5684
2018-06-29T13:31:56.476Z,5364
2018-06-29T13:32:55.982Z,6292
2018-06-29T13:33:56.197Z,6880
2018-06-29T13:34:56.341Z,6836
2018-06-29T13:35:56.366Z,6804
2018-06-29T13:36:56.691Z,6520
2018-06-29T13:37:56.722Z,7024
2018-06-29T13:38:56.485Z,7052
2018-06-29T13:39:56.517Z,7052
2018-06-29T13:40:56.829Z,6836
2018-06-29T13:41:56.873Z,7000
2018-06-29T13:42:56.627Z,7044
2018-06-29T13:43:56.864Z,6984
2018-06-29T13:44:56.974Z,5540
2018-06-29T13:45:56.756Z,5708
2018-06-29T13:46:57.054Z,5808
2018-06-29T13:47:57.093Z,5196
2018-06-29T13:48:56.592Z,4640
2018-06-29T13:49:56.893Z,4992